KSRRKELP

Guest
Details From KSRR - Sierra Blanca Rgnl
To KELP - El Paso Intl
Flight Number -
Tags Generated
Created
Modified
Stats Distance 108 nm / 200 km
Max Altitude 0 ft / 0 m
Waypoints 2
Social Downloads 0
Likes 0
Share VATSIM

Download

Looking for another format? Having issues loading an existing format? Contact us
Advertisement - Login to hide

Notes

Generated

Route

KSRR KELP

ID Type Via Altitude Latitude Longitude Leg Dist Tot Dist Heading (true) Name
O KSRR APT - 0 ft / 0 m 33.46399˚ -105.53072˚ - 0 nm - SIERRA BLANCA RGNL
O KELP APT - 0 ft / 0 m 31.80572˚ -106.36983˚ 108 nm 108 nm 203° / 203° El Paso Intl

Altitude Profile

Advertisement - Login to hide

KSRR

Details ICAO KSRR (SRR)
Name SIERRA BLANCA RGNL
Region United States
Timezone America/Denver (UTC-7.0)
Stats Elevation 6,814 ft / 2,077 m (AMSL)
Location 33.460560° -105.528642°
Runways 2
Magnetic Variation 7.908° E

METAR

KSRR 170435Z AUTO 30009KT 10SM CLR 02/M12 A2987 RMK AO2

Decode

TAF

Not found

Departure Runways

ID Width Length Bearing (true) Bearing (mag) Surface Threshold Offset Overrun Length
06 100 ft / 30 m 8,086 ft / 2,465 m 71.30° 63.39° Asphalt 0 ft / 0 m 0 ft / 0 m
12 75 ft / 23 m 6,500 ft / 1,981 m 129.94° 122.03° Asphalt 0 ft / 0 m 0 ft / 0 m
24 100 ft / 30 m 8,086 ft / 2,465 m 251.32° 243.41° Asphalt 0 ft / 0 m 0 ft / 0 m
30 75 ft / 23 m 6,500 ft / 1,981 m 309.95° 302.04° Asphalt 0 ft / 0 m 0 ft / 0 m

KELP

Details ICAO KELP (ELP)
Name El Paso Intl
Region United States
Timezone America/Denver (UTC-7.0)
Stats Elevation 3,958 ft / 1,206 m (AMSL)
Location 31.806535° -106.374581°
Runways 3
Magnetic Variation 8.109° E

METAR

KELP 170351Z 21006KT 10SM FEW250 08/M01 A2989 RMK AO2 SLP104 T00781006

Decode

TAF

TAF KELP 162320Z 1700/1724 23011KT P6SM FEW100 BKN250 FM171200 36007KT P6SM VCSH BKN080 OVC120 FM171700 11007KT P6SM -SHRA BKN050 OVC100

Decode

Destination Runways

ID Width Length Bearing (true) Bearing (mag) Surface Threshold Offset Overrun Length
04 150 ft / 46 m 12,021 ft / 3,664 m 49.85° 41.74° Asphalt 0 ft / 0 m 1,000 ft / 305 m
08L 75 ft / 23 m 5,482 ft / 1,671 m 88.32° 80.21° Asphalt 0 ft / 0 m 0 ft / 0 m
08R 150 ft / 46 m 9,007 ft / 2,746 m 93.32° 85.21° Asphalt 0 ft / 0 m 3,100 ft / 945 m
22 150 ft / 46 m 12,021 ft / 3,664 m 229.87° 221.76° Asphalt 0 ft / 0 m 0 ft / 0 m
26L 150 ft / 46 m 9,007 ft / 2,746 m 273.34° 265.23° Asphalt 0 ft / 0 m 0 ft / 0 m
26R 75 ft / 23 m 5,482 ft / 1,671 m 268.33° 260.22° Asphalt 0 ft / 0 m 0 ft / 0 m

Approach Navaids

Runway Type Ident Frequency Range Bearing (true) Bearing (mag) Slope Elevation
04 Localiser IETF 111.50 MHz 18 nm / 33 km 49.87° 41.76° - 3,950 ft / 1,204 m (AMSL)
04 DME IETF 111.50 MHz 18 nm / 33 km - - - 3,926 ft / 1,197 m (AMSL)
22 Localiser IELP 111.50 MHz 18 nm / 33 km 229.85° 221.74° - 3,911 ft / 1,192 m (AMSL)
22 Glidescope IELP 111.50 MHz 10 nm / 19 km 229.86° 221.75° 3.00° 3,940 ft / 1,201 m (AMSL)
22 DME IELP 111.50 MHz 18 nm / 33 km - - - 3,926 ft / 1,197 m (AMSL)